sensor_id;sensor_type;location;lat;lon;timestamp;P1;durP1;ratioP1;P2;durP2;ratioP2
71360;SDS011;59166;48.908;1.870;2024-01-25T00:03:27;12.53;;;2.73;;
71360;SDS011;59166;48.908;1.870;2024-01-25T00:08:28;14.00;;;3.88;;
71360;SDS011;59166;48.908;1.870;2024-01-25T00:13:29;14.50;;;3.60;;
71360;SDS011;59166;48.908;1.870;2024-01-25T00:18:31;11.18;;;3.60;;
71360;SDS011;59166;48.908;1.870;2024-01-25T00:23:32;14.13;;;3.90;;
71360;SDS011;59166;48.908;1.870;2024-01-25T00:28:33;14.10;;;3.53;;
71360;SDS011;59166;48.908;1.870;2024-01-25T00:33:35;12.93;;;3.73;;
71360;SDS011;59166;48.908;1.870;2024-01-25T00:38:36;13.40;;;3.70;;
71360;SDS011;59166;48.908;1.870;2024-01-25T00:43:38;12.63;;;3.17;;
71360;SDS011;59166;48.908;1.870;2024-01-25T00:48:40;10.40;;;2.22;;
71360;SDS011;59166;48.908;1.870;2024-01-25T00:53:42;8.37;;;1.87;;
71360;SDS011;59166;48.908;1.870;2024-01-25T00:58:43;8.40;;;1.75;;
71360;SDS011;59166;48.908;1.870;2024-01-25T01:03:46;10.13;;;1.95;;
71360;SDS011;59166;48.908;1.870;2024-01-25T01:08:47;7.73;;;2.00;;
71360;SDS011;59166;48.908;1.870;2024-01-25T01:13:49;8.07;;;1.70;;
71360;SDS011;59166;48.908;1.870;2024-01-25T01:18:51;7.53;;;1.95;;
71360;SDS011;59166;48.908;1.870;2024-01-25T01:23:52;9.47;;;2.13;;
71360;SDS011;59166;48.908;1.870;2024-01-25T01:28:53;9.48;;;1.90;;
71360;SDS011;59166;48.908;1.870;2024-01-25T01:33:55;10.57;;;1.87;;
71360;SDS011;59166;48.908;1.870;2024-01-25T01:38:56;8.85;;;2.10;;
71360;SDS011;59166;48.908;1.870;2024-01-25T01:43:57;9.68;;;1.98;;
71360;SDS011;59166;48.908;1.870;2024-01-25T01:48:59;8.27;;;2.40;;
71360;SDS011;59166;48.908;1.870;2024-01-25T01:54:00;7.78;;;2.20;;
71360;SDS011;59166;48.908;1.870;2024-01-25T01:59:03;8.27;;;2.10;;
71360;SDS011;59166;48.908;1.870;2024-01-25T02:04:07;8.07;;;1.90;;
71360;SDS011;59166;48.908;1.870;2024-01-25T02:09:08;8.60;;;2.00;;
71360;SDS011;59166;48.908;1.870;2024-01-25T02:14:08;7.97;;;1.90;;
71360;SDS011;59166;48.908;1.870;2024-01-25T02:19:11;7.15;;;1.55;;
71360;SDS011;59166;48.908;1.870;2024-01-25T02:24:13;9.70;;;2.10;;
71360;SDS011;59166;48.908;1.870;2024-01-25T02:29:14;7.40;;;1.77;;
71360;SDS011;59166;48.908;1.870;2024-01-25T02:34:15;9.88;;;2.20;;
71360;SDS011;59166;48.908;1.870;2024-01-25T02:39:17;8.07;;;2.13;;
71360;SDS011;59166;48.908;1.870;2024-01-25T02:44:18;6.97;;;1.50;;
71360;SDS011;59166;48.908;1.870;2024-01-25T02:49:19;6.75;;;1.60;;
71360;SDS011;59166;48.908;1.870;2024-01-25T02:54:21;6.37;;;1.43;;
71360;SDS011;59166;48.908;1.870;2024-01-25T02:59:22;7.38;;;1.60;;
71360;SDS011;59166;48.908;1.870;2024-01-25T03:04:23;7.80;;;1.63;;
71360;SDS011;59166;48.908;1.870;2024-01-25T03:09:25;7.68;;;1.50;;
71360;SDS011;59166;48.908;1.870;2024-01-25T03:14:26;6.18;;;1.33;;
71360;SDS011;59166;48.908;1.870;2024-01-25T03:19:27;6.73;;;1.30;;
71360;SDS011;59166;48.908;1.870;2024-01-25T03:24:30;5.78;;;1.40;;
71360;SDS011;59166;48.908;1.870;2024-01-25T03:29:31;4.97;;;1.30;;
71360;SDS011;59166;48.908;1.870;2024-01-25T03:34:32;5.43;;;1.50;;
71360;SDS011;59166;48.908;1.870;2024-01-25T03:39:34;5.50;;;1.27;;
71360;SDS011;59166;48.908;1.870;2024-01-25T03:44:35;7.10;;;1.40;;
71360;SDS011;59166;48.908;1.870;2024-01-25T03:49:36;5.43;;;1.20;;
71360;SDS011;59166;48.908;1.870;2024-01-25T03:54:38;5.10;;;1.20;;
71360;SDS011;59166;48.908;1.870;2024-01-25T03:59:39;8.10;;;1.60;;
71360;SDS011;59166;48.908;1.870;2024-01-25T04:04:40;6.75;;;1.50;;
71360;SDS011;59166;48.908;1.870;2024-01-25T04:09:42;4.23;;;1.30;;
71360;SDS011;59166;48.908;1.870;2024-01-25T04:14:43;5.57;;;1.33;;
71360;SDS011;59166;48.908;1.870;2024-01-25T04:19:44;5.32;;;1.40;;
71360;SDS011;59166;48.908;1.870;2024-01-25T04:24:47;7.13;;;1.30;;
71360;SDS011;59166;48.908;1.870;2024-01-25T04:29:48;4.95;;;1.13;;
71360;SDS011;59166;48.908;1.870;2024-01-25T04:34:48;6.68;;;1.20;;
71360;SDS011;59166;48.908;1.870;2024-01-25T04:39:51;4.80;;;1.17;;
71360;SDS011;59166;48.908;1.870;2024-01-25T04:44:52;4.97;;;1.42;;
71360;SDS011;59166;48.908;1.870;2024-01-25T04:49:52;6.70;;;1.50;;
71360;SDS011;59166;48.908;1.870;2024-01-25T04:54:55;6.20;;;1.80;;
71360;SDS011;59166;48.908;1.870;2024-01-25T04:59:56;5.40;;;1.70;;
71360;SDS011;59166;48.908;1.870;2024-01-25T05:04:56;6.93;;;1.93;;
71360;SDS011;59166;48.908;1.870;2024-01-25T05:09:59;7.40;;;2.13;;
71360;SDS011;59166;48.908;1.870;2024-01-25T05:15:00;8.37;;;2.87;;
71360;SDS011;59166;48.908;1.870;2024-01-25T05:20:00;7.03;;;2.30;;
71360;SDS011;59166;48.908;1.870;2024-01-25T05:25:03;8.27;;;2.50;;
71360;SDS011;59166;48.908;1.870;2024-01-25T05:30:05;10.32;;;3.58;;
71360;SDS011;59166;48.908;1.870;2024-01-25T05:35:07;8.63;;;2.45;;
71360;SDS011;59166;48.908;1.870;2024-01-25T05:40:10;7.17;;;2.30;;
71360;SDS011;59166;48.908;1.870;2024-01-25T05:45:11;8.18;;;2.67;;
71360;SDS011;59166;48.908;1.870;2024-01-25T05:50:12;8.45;;;2.40;;
71360;SDS011;59166;48.908;1.870;2024-01-25T05:55:15;8.50;;;2.90;;
71360;SDS011;59166;48.908;1.870;2024-01-25T06:00:16;8.63;;;2.92;;
71360;SDS011;59166;48.908;1.870;2024-01-25T06:05:17;7.80;;;2.55;;
71360;SDS011;59166;48.908;1.870;2024-01-25T06:10:19;9.63;;;2.90;;
71360;SDS011;59166;48.908;1.870;2024-01-25T06:15:20;11.05;;;3.25;;
71360;SDS011;59166;48.908;1.870;2024-01-25T06:20:21;12.67;;;3.80;;
71360;SDS011;59166;48.908;1.870;2024-01-25T06:25:23;9.88;;;3.47;;
71360;SDS011;59166;48.908;1.870;2024-01-25T06:30:24;9.70;;;3.03;;
71360;SDS011;59166;48.908;1.870;2024-01-25T06:35:25;8.20;;;2.83;;
71360;SDS011;59166;48.908;1.870;2024-01-25T06:40:27;9.95;;;2.85;;
71360;SDS011;59166;48.908;1.870;2024-01-25T06:45:28;9.10;;;2.80;;
71360;SDS011;59166;48.908;1.870;2024-01-25T06:50:28;17.00;;;7.10;;
71360;SDS011;59166;48.908;1.870;2024-01-25T06:55:31;14.70;;;5.20;;
71360;SDS011;59166;48.908;1.870;2024-01-25T07:00:32;16.50;;;6.07;;
71360;SDS011;59166;48.908;1.870;2024-01-25T07:05:32;11.77;;;4.93;;
71360;SDS011;59166;48.908;1.870;2024-01-25T07:10:35;14.75;;;5.00;;
71360;SDS011;59166;48.908;1.870;2024-01-25T07:15:36;14.68;;;4.82;;
71360;SDS011;59166;48.908;1.870;2024-01-25T07:20:36;11.07;;;3.90;;
71360;SDS011;59166;48.908;1.870;2024-01-25T07:25:39;10.52;;;3.45;;
71360;SDS011;59166;48.908;1.870;2024-01-25T07:30:40;10.60;;;3.60;;
71360;SDS011;59166;48.908;1.870;2024-01-25T07:35:40;12.15;;;3.60;;
71360;SDS011;59166;48.908;1.870;2024-01-25T07:40:43;12.00;;;4.30;;
71360;SDS011;59166;48.908;1.870;2024-01-25T07:45:43;18.98;;;6.68;;
71360;SDS011;59166;48.908;1.870;2024-01-25T07:50:44;18.42;;;6.32;;
71360;SDS011;59166;48.908;1.870;2024-01-25T07:55:47;15.73;;;6.00;;
71360;SDS011;59166;48.908;1.870;2024-01-25T08:00:48;12.68;;;4.40;;
71360;SDS011;59166;48.908;1.870;2024-01-25T08:05:49;10.47;;;3.87;;
71360;SDS011;59166;48.908;1.870;2024-01-25T08:10:51;10.75;;;3.33;;
71360;SDS011;59166;48.908;1.870;2024-01-25T08:15:52;11.37;;;2.50;;
71360;SDS011;59166;48.908;1.870;2024-01-25T08:20:53;8.23;;;2.33;;
71360;SDS011;59166;48.908;1.870;2024-01-25T08:25:55;8.68;;;2.50;;
71360;SDS011;59166;48.908;1.870;2024-01-25T08:30:56;11.67;;;2.67;;
71360;SDS011;59166;48.908;1.870;2024-01-25T08:35:57;11.82;;;2.70;;
71360;SDS011;59166;48.908;1.870;2024-01-25T08:40:59;10.80;;;2.80;;
71360;SDS011;59166;48.908;1.870;2024-01-25T08:46:00;11.10;;;2.70;;
71360;SDS011;59166;48.908;1.870;2024-01-25T08:51:01;13.83;;;2.83;;
71360;SDS011;59166;48.908;1.870;2024-01-25T08:56:03;9.52;;;2.42;;
71360;SDS011;59166;48.908;1.870;2024-01-25T09:01:05;12.48;;;2.85;;
71360;SDS011;59166;48.908;1.870;2024-01-25T09:06:05;12.80;;;2.77;;
71360;SDS011;59166;48.908;1.870;2024-01-25T09:11:08;10.07;;;2.30;;
71360;SDS011;59166;48.908;1.870;2024-01-25T09:16:09;8.67;;;2.17;;
71360;SDS011;59166;48.908;1.870;2024-01-25T09:21:10;11.95;;;2.85;;
71360;SDS011;59166;48.908;1.870;2024-01-25T09:26:12;8.55;;;2.05;;
71360;SDS011;59166;48.908;1.870;2024-01-25T09:31:13;12.43;;;2.67;;
71360;SDS011;59166;48.908;1.870;2024-01-25T09:36:14;10.05;;;2.13;;
71360;SDS011;59166;48.908;1.870;2024-01-25T09:41:18;12.03;;;2.30;;
71360;SDS011;59166;48.908;1.870;2024-01-25T09:46:19;10.57;;;2.72;;
71360;SDS011;59166;48.908;1.870;2024-01-25T09:51:19;8.63;;;2.47;;
71360;SDS011;59166;48.908;1.870;2024-01-25T09:56:22;9.83;;;2.47;;
71360;SDS011;59166;48.908;1.870;2024-01-25T10:01:23;11.77;;;2.58;;
71360;SDS011;59166;48.908;1.870;2024-01-25T10:06:24;9.13;;;2.43;;
71360;SDS011;59166;48.908;1.870;2024-01-25T10:16:30;11.52;;;2.53;;
71360;SDS011;59166;48.908;1.870;2024-01-25T10:21:31;9.13;;;2.17;;
71360;SDS011;59166;48.908;1.870;2024-01-25T10:26:33;12.52;;;2.72;;
71360;SDS011;59166;48.908;1.870;2024-01-25T10:31:35;13.40;;;3.10;;
71360;SDS011;59166;48.908;1.870;2024-01-25T10:36:39;10.27;;;2.75;;
71360;SDS011;59166;48.908;1.870;2024-01-25T10:41:42;10.93;;;2.67;;
71360;SDS011;59166;48.908;1.870;2024-01-25T10:46:45;8.30;;;2.50;;
71360;SDS011;59166;48.908;1.870;2024-01-25T10:51:47;9.05;;;2.67;;
71360;SDS011;59166;48.908;1.870;2024-01-25T10:56:50;12.77;;;3.33;;
71360;SDS011;59166;48.908;1.870;2024-01-25T11:01:54;9.70;;;3.30;;
71360;SDS011;59166;48.908;1.870;2024-01-25T11:07:04;9.67;;;2.40;;
71360;SDS011;59166;48.908;1.870;2024-01-25T11:12:12;9.70;;;2.47;;
71360;SDS011;59166;48.908;1.870;2024-01-25T11:17:18;9.88;;;2.30;;
71360;SDS011;59166;48.908;1.870;2024-01-25T11:22:19;8.43;;;2.27;;
71360;SDS011;59166;48.908;1.870;2024-01-25T11:27:21;10.88;;;2.08;;
71360;SDS011;59166;48.908;1.870;2024-01-25T11:32:22;7.53;;;2.17;;
71360;SDS011;59166;48.908;1.870;2024-01-25T11:37:23;10.40;;;2.30;;
71360;SDS011;59166;48.908;1.870;2024-01-25T11:42:26;9.10;;;2.00;;
71360;SDS011;59166;48.908;1.870;2024-01-25T11:47:26;8.27;;;2.17;;
71360;SDS011;59166;48.908;1.870;2024-01-25T11:52:27;8.50;;;2.50;;
71360;SDS011;59166;48.908;1.870;2024-01-25T11:57:30;7.17;;;2.10;;
71360;SDS011;59166;48.908;1.870;2024-01-25T12:02:31;8.27;;;2.03;;
71360;SDS011;59166;48.908;1.870;2024-01-25T12:07:33;7.05;;;2.10;;
71360;SDS011;59166;48.908;1.870;2024-01-25T12:12:36;8.30;;;1.90;;
71360;SDS011;59166;48.908;1.870;2024-01-25T12:17:37;8.43;;;2.17;;
71360;SDS011;59166;48.908;1.870;2024-01-25T12:22:38;9.35;;;2.10;;
71360;SDS011;59166;48.908;1.870;2024-01-25T12:27:41;8.90;;;2.00;;
71360;SDS011;59166;48.908;1.870;2024-01-25T12:32:42;6.55;;;1.80;;
71360;SDS011;59166;48.908;1.870;2024-01-25T12:37:42;7.77;;;1.90;;
71360;SDS011;59166;48.908;1.870;2024-01-25T12:42:44;8.27;;;1.80;;
71360;SDS011;59166;48.908;1.870;2024-01-25T12:47:45;6.10;;;1.70;;
71360;SDS011;59166;48.908;1.870;2024-01-25T12:52:46;6.03;;;1.63;;
71360;SDS011;59166;48.908;1.870;2024-01-25T12:57:48;6.43;;;1.80;;
71360;SDS011;59166;48.908;1.870;2024-01-25T13:02:49;5.72;;;1.73;;
71360;SDS011;59166;48.908;1.870;2024-01-25T13:07:50;6.45;;;1.60;;
71360;SDS011;59166;48.908;1.870;2024-01-25T13:12:52;7.43;;;1.80;;
71360;SDS011;59166;48.908;1.870;2024-01-25T13:17:53;7.45;;;1.70;;
71360;SDS011;59166;48.908;1.870;2024-01-25T13:22:54;5.93;;;1.63;;
71360;SDS011;59166;48.908;1.870;2024-01-25T13:27:56;5.22;;;1.23;;
71360;SDS011;59166;48.908;1.870;2024-01-25T13:32:57;6.03;;;1.50;;
71360;SDS011;59166;48.908;1.870;2024-01-25T13:37:58;5.23;;;1.30;;
71360;SDS011;59166;48.908;1.870;2024-01-25T13:43:00;5.88;;;1.30;;
71360;SDS011;59166;48.908;1.870;2024-01-25T13:48:01;5.00;;;1.10;;
71360;SDS011;59166;48.908;1.870;2024-01-25T13:53:03;6.07;;;1.20;;
71360;SDS011;59166;48.908;1.870;2024-01-25T13:58:05;4.68;;;1.30;;
71360;SDS011;59166;48.908;1.870;2024-01-25T14:03:06;5.50;;;1.30;;
71360;SDS011;59166;48.908;1.870;2024-01-25T14:08:07;6.47;;;1.53;;
71360;SDS011;59166;48.908;1.870;2024-01-25T14:13:09;4.23;;;1.40;;
71360;SDS011;59166;48.908;1.870;2024-01-25T14:18:10;4.20;;;1.20;;
71360;SDS011;59166;48.908;1.870;2024-01-25T14:23:11;5.97;;;1.48;;
71360;SDS011;59166;48.908;1.870;2024-01-25T14:28:13;5.20;;;1.20;;
71360;SDS011;59166;48.908;1.870;2024-01-25T14:33:14;6.22;;;1.40;;
71360;SDS011;59166;48.908;1.870;2024-01-25T14:38:15;5.13;;;1.17;;
71360;SDS011;59166;48.908;1.870;2024-01-25T14:43:17;7.83;;;1.43;;
71360;SDS011;59166;48.908;1.870;2024-01-25T14:48:18;5.93;;;1.70;;
71360;SDS011;59166;48.908;1.870;2024-01-25T14:53:19;6.27;;;1.50;;
71360;SDS011;59166;48.908;1.870;2024-01-25T14:58:21;5.13;;;1.30;;
71360;SDS011;59166;48.908;1.870;2024-01-25T15:03:22;5.50;;;1.30;;
71360;SDS011;59166;48.908;1.870;2024-01-25T15:08:23;4.65;;;1.10;;
71360;SDS011;59166;48.908;1.870;2024-01-25T15:13:25;4.70;;;1.10;;
71360;SDS011;59166;48.908;1.870;2024-01-25T15:18:26;5.65;;;1.30;;
71360;SDS011;59166;48.908;1.870;2024-01-25T15:23:26;4.33;;;1.30;;
71360;SDS011;59166;48.908;1.870;2024-01-25T15:28:29;5.38;;;1.42;;
71360;SDS011;59166;48.908;1.870;2024-01-25T15:33:30;6.47;;;1.60;;
71360;SDS011;59166;48.908;1.870;2024-01-25T15:38:30;5.17;;;1.27;;
71360;SDS011;59166;48.908;1.870;2024-01-25T15:43:33;5.82;;;1.50;;
71360;SDS011;59166;48.908;1.870;2024-01-25T15:48:34;4.77;;;1.20;;
71360;SDS011;59166;48.908;1.870;2024-01-25T15:53:34;4.13;;;1.00;;
71360;SDS011;59166;48.908;1.870;2024-01-25T15:58:37;5.00;;;1.40;;
71360;SDS011;59166;48.908;1.870;2024-01-25T16:03:38;3.63;;;1.17;;
71360;SDS011;59166;48.908;1.870;2024-01-25T16:08:39;4.70;;;1.17;;
71360;SDS011;59166;48.908;1.870;2024-01-25T16:13:41;5.37;;;1.30;;
71360;SDS011;59166;48.908;1.870;2024-01-25T16:18:42;4.60;;;1.10;;
71360;SDS011;59166;48.908;1.870;2024-01-25T16:23:43;3.58;;;1.10;;
71360;SDS011;59166;48.908;1.870;2024-01-25T16:28:45;5.23;;;1.10;;
71360;SDS011;59166;48.908;1.870;2024-01-25T16:33:46;6.40;;;1.20;;
71360;SDS011;59166;48.908;1.870;2024-01-25T16:38:47;7.83;;;1.30;;
71360;SDS011;59166;48.908;1.870;2024-01-25T16:43:49;6.20;;;1.20;;
71360;SDS011;59166;48.908;1.870;2024-01-25T16:48:50;3.57;;;1.20;;
71360;SDS011;59166;48.908;1.870;2024-01-25T16:53:50;6.82;;;1.30;;
71360;SDS011;59166;48.908;1.870;2024-01-25T16:58:52;4.10;;;1.20;;
71360;SDS011;59166;48.908;1.870;2024-01-25T17:03:53;5.53;;;1.50;;
71360;SDS011;59166;48.908;1.870;2024-01-25T17:08:53;5.83;;;1.80;;
71360;SDS011;59166;48.908;1.870;2024-01-25T17:13:55;5.70;;;1.57;;
71360;SDS011;59166;48.908;1.870;2024-01-25T17:18:56;5.30;;;1.52;;
71360;SDS011;59166;48.908;1.870;2024-01-25T17:23:57;6.07;;;1.60;;
71360;SDS011;59166;48.908;1.870;2024-01-25T17:28:59;6.28;;;1.80;;
71360;SDS011;59166;48.908;1.870;2024-01-25T17:33:59;5.70;;;1.77;;
71360;SDS011;59166;48.908;1.870;2024-01-25T17:39:00;6.37;;;2.10;;
71360;SDS011;59166;48.908;1.870;2024-01-25T17:44:02;5.68;;;1.80;;
71360;SDS011;59166;48.908;1.870;2024-01-25T17:49:03;6.50;;;2.20;;
71360;SDS011;59166;48.908;1.870;2024-01-25T17:54:03;6.90;;;2.30;;
71360;SDS011;59166;48.908;1.870;2024-01-25T17:59:05;6.63;;;2.30;;
71360;SDS011;59166;48.908;1.870;2024-01-25T18:04:06;7.18;;;2.20;;
71360;SDS011;59166;48.908;1.870;2024-01-25T18:09:08;6.83;;;2.40;;
71360;SDS011;59166;48.908;1.870;2024-01-25T18:14:10;6.43;;;2.33;;
71360;SDS011;59166;48.908;1.870;2024-01-25T18:19:11;7.00;;;2.27;;
71360;SDS011;59166;48.908;1.870;2024-01-25T18:24:11;8.03;;;2.60;;
71360;SDS011;59166;48.908;1.870;2024-01-25T18:29:13;7.60;;;2.73;;
71360;SDS011;59166;48.908;1.870;2024-01-25T18:34:14;8.50;;;2.90;;
71360;SDS011;59166;48.908;1.870;2024-01-25T18:39:14;7.73;;;2.80;;
71360;SDS011;59166;48.908;1.870;2024-01-25T18:44:16;8.80;;;3.10;;
71360;SDS011;59166;48.908;1.870;2024-01-25T18:49:17;7.93;;;2.70;;
71360;SDS011;59166;48.908;1.870;2024-01-25T18:54:18;8.13;;;3.10;;
71360;SDS011;59166;48.908;1.870;2024-01-25T18:59:21;8.50;;;3.07;;
71360;SDS011;59166;48.908;1.870;2024-01-25T19:04:22;8.30;;;2.90;;
71360;SDS011;59166;48.908;1.870;2024-01-25T19:09:23;8.32;;;2.92;;
71360;SDS011;59166;48.908;1.870;2024-01-25T19:14:26;8.23;;;2.90;;
71360;SDS011;59166;48.908;1.870;2024-01-25T19:19:27;8.63;;;3.30;;
71360;SDS011;59166;48.908;1.870;2024-01-25T19:24:27;10.27;;;3.40;;
71360;SDS011;59166;48.908;1.870;2024-01-25T19:29:29;10.38;;;3.40;;
71360;SDS011;59166;48.908;1.870;2024-01-25T19:34:30;8.27;;;3.30;;
71360;SDS011;59166;48.908;1.870;2024-01-25T19:39:30;7.90;;;3.13;;
71360;SDS011;59166;48.908;1.870;2024-01-25T19:44:32;8.63;;;3.10;;
71360;SDS011;59166;48.908;1.870;2024-01-25T19:49:33;9.40;;;3.73;;
71360;SDS011;59166;48.908;1.870;2024-01-25T19:54:33;9.70;;;3.60;;
71360;SDS011;59166;48.908;1.870;2024-01-25T19:59:36;9.20;;;3.50;;
71360;SDS011;59166;48.908;1.870;2024-01-25T20:04:37;9.20;;;3.67;;
71360;SDS011;59166;48.908;1.870;2024-01-25T20:09:38;7.37;;;3.13;;
71360;SDS011;59166;48.908;1.870;2024-01-25T20:14:40;8.53;;;3.47;;
71360;SDS011;59166;48.908;1.870;2024-01-25T20:19:40;8.77;;;3.27;;
71360;SDS011;59166;48.908;1.870;2024-01-25T20:24:41;8.80;;;3.33;;
71360;SDS011;59166;48.908;1.870;2024-01-25T20:29:43;9.87;;;4.00;;
71360;SDS011;59166;48.908;1.870;2024-01-25T20:34:44;11.73;;;3.47;;
71360;SDS011;59166;48.908;1.870;2024-01-25T20:39:44;9.30;;;3.73;;
71360;SDS011;59166;48.908;1.870;2024-01-25T20:44:46;9.57;;;3.30;;
71360;SDS011;59166;48.908;1.870;2024-01-25T20:49:47;10.63;;;3.80;;
71360;SDS011;59166;48.908;1.870;2024-01-25T20:54:47;8.90;;;3.47;;
71360;SDS011;59166;48.908;1.870;2024-01-25T20:59:50;10.15;;;4.00;;
71360;SDS011;59166;48.908;1.870;2024-01-25T21:04:51;8.70;;;3.70;;
71360;SDS011;59166;48.908;1.870;2024-01-25T21:09:52;9.63;;;3.70;;
71360;SDS011;59166;48.908;1.870;2024-01-25T21:14:55;10.35;;;3.75;;
71360;SDS011;59166;48.908;1.870;2024-01-25T21:19:56;9.77;;;3.73;;
71360;SDS011;59166;48.908;1.870;2024-01-25T21:24:57;9.88;;;3.42;;
71360;SDS011;59166;48.908;1.870;2024-01-25T21:30:32;8.33;;;3.13;;
71360;SDS011;59166;48.908;1.870;2024-01-25T21:35:53;9.37;;;4.10;;
71360;SDS011;59166;48.908;1.870;2024-01-25T21:41:12;10.85;;;4.05;;
71360;SDS011;59166;48.908;1.870;2024-01-25T21:46:15;9.32;;;4.00;;
71360;SDS011;59166;48.908;1.870;2024-01-25T21:51:16;10.13;;;4.07;;
71360;SDS011;59166;48.908;1.870;2024-01-25T21:56:17;9.23;;;4.03;;
71360;SDS011;59166;48.908;1.870;2024-01-25T22:01:30;12.20;;;3.90;;
71360;SDS011;59166;48.908;1.870;2024-01-25T22:06:31;11.17;;;3.60;;
71360;SDS011;59166;48.908;1.870;2024-01-25T22:11:31;10.13;;;3.92;;
71360;SDS011;59166;48.908;1.870;2024-01-25T22:16:33;9.47;;;3.27;;
71360;SDS011;59166;48.908;1.870;2024-01-25T22:21:34;11.15;;;3.42;;
71360;SDS011;59166;48.908;1.870;2024-01-25T22:26:35;8.23;;;3.30;;
71360;SDS011;59166;48.908;1.870;2024-01-25T22:31:37;8.97;;;3.30;;
71360;SDS011;59166;48.908;1.870;2024-01-25T22:36:37;9.80;;;3.65;;
71360;SDS011;59166;48.908;1.870;2024-01-25T22:41:38;9.93;;;3.70;;
71360;SDS011;59166;48.908;1.870;2024-01-25T22:46:40;9.27;;;3.43;;
71360;SDS011;59166;48.908;1.870;2024-01-25T22:51:40;9.65;;;3.78;;
71360;SDS011;59166;48.908;1.870;2024-01-25T22:56:41;9.83;;;3.93;;
71360;SDS011;59166;48.908;1.870;2024-01-25T23:01:43;9.60;;;3.70;;
71360;SDS011;59166;48.908;1.870;2024-01-25T23:11:50;8.50;;;3.45;;
71360;SDS011;59166;48.908;1.870;2024-01-25T23:16:51;8.87;;;3.70;;
71360;SDS011;59166;48.908;1.870;2024-01-25T23:21:53;9.73;;;3.70;;
71360;SDS011;59166;48.908;1.870;2024-01-25T23:26:54;10.07;;;3.97;;
71360;SDS011;59166;48.908;1.870;2024-01-25T23:31:55;10.85;;;4.00;;
71360;SDS011;59166;48.908;1.870;2024-01-25T23:36:57;9.37;;;3.77;;
71360;SDS011;59166;48.908;1.870;2024-01-25T23:41:58;12.25;;;3.95;;
71360;SDS011;59166;48.908;1.870;2024-01-25T23:46:59;10.87;;;4.10;;
71360;SDS011;59166;48.908;1.870;2024-01-25T23:52:01;9.55;;;3.63;;
71360;SDS011;59166;48.908;1.870;2024-01-25T23:57:02;10.77;;;3.70;;
